Terminal Aerodrome Forecast
Issued by NWS

Home | Current Version | Previous Version | Text Only | Print | Product List | Glossary On
Versions: 1 2 3 4 5 6 7 8 9 10 11 12 13 14 15 16 17 18 19 20 21 22 23 24 25 26 27
000
FTUS43 KDLH 290134 AAA
TAFBRD
TAF AMD
KBRD 290134Z 2902/2924 33007KT P6SM VCSH SCT007 OVC012
      TEMPO 2902/2903 5SM -SHRA BR BKN005
     FM290300 31007KT P6SM BKN005
     FM291200 30008KT P6SM BKN012
     FM291700 34008KT P6SM BKN035=

USA.gov is the U.S. government's official web portal to all federal, state and local government web resources and services.